sensor_id;sensor_type;location;lat;lon;timestamp;P1;durP1;ratioP1;P2;durP2;ratioP2
3769;SDS011;1900;48.890;9.190;2023-12-22T00:02:23;5.90;;;1.80;;
3769;SDS011;1900;48.890;9.190;2023-12-22T00:04:50;9.03;;;1.80;;
3769;SDS011;1900;48.890;9.190;2023-12-22T00:07:16;2.47;;;1.97;;
3769;SDS011;1900;48.890;9.190;2023-12-22T00:09:42;4.77;;;1.80;;
3769;SDS011;1900;48.890;9.190;2023-12-22T00:12:08;5.13;;;1.90;;
3769;SDS011;1900;48.890;9.190;2023-12-22T00:14:34;3.80;;;1.60;;
3769;SDS011;1900;48.890;9.190;2023-12-22T00:16:59;6.43;;;1.80;;
3769;SDS011;1900;48.890;9.190;2023-12-22T00:19:28;4.40;;;2.10;;
3769;SDS011;1900;48.890;9.190;2023-12-22T00:21:54;5.57;;;2.07;;
3769;SDS011;1900;48.890;9.190;2023-12-22T00:24:20;6.47;;;1.87;;
3769;SDS011;1900;48.890;9.190;2023-12-22T00:26:46;6.23;;;2.37;;
3769;SDS011;1900;48.890;9.190;2023-12-22T00:29:12;7.60;;;2.30;;
3769;SDS011;1900;48.890;9.190;2023-12-22T00:31:37;5.17;;;2.20;;
3769;SDS011;1900;48.890;9.190;2023-12-22T00:34:03;12.40;;;2.50;;
3769;SDS011;1900;48.890;9.190;2023-12-22T00:36:29;4.83;;;2.00;;
3769;SDS011;1900;48.890;9.190;2023-12-22T00:38:55;4.70;;;2.20;;
3769;SDS011;1900;48.890;9.190;2023-12-22T00:41:20;7.87;;;2.40;;
3769;SDS011;1900;48.890;9.190;2023-12-22T00:43:46;3.27;;;2.20;;
3769;SDS011;1900;48.890;9.190;2023-12-22T00:46:12;3.47;;;1.60;;
3769;SDS011;1900;48.890;9.190;2023-12-22T00:48:39;1.40;;;1.30;;
3769;SDS011;1900;48.890;9.190;2023-12-22T00:51:07;1.33;;;1.20;;
3769;SDS011;1900;48.890;9.190;2023-12-22T00:53:33;2.70;;;1.50;;
3769;SDS011;1900;48.890;9.190;2023-12-22T00:55:59;2.63;;;1.87;;
3769;SDS011;1900;48.890;9.190;2023-12-22T00:58:26;2.23;;;1.87;;
3769;SDS011;1900;48.890;9.190;2023-12-22T01:00:52;3.80;;;1.80;;
3769;SDS011;1900;48.890;9.190;2023-12-22T01:03:17;3.27;;;1.97;;
3769;SDS011;1900;48.890;9.190;2023-12-22T01:05:43;3.40;;;1.40;;
3769;SDS011;1900;48.890;9.190;2023-12-22T01:08:09;1.77;;;1.53;;
3769;SDS011;1900;48.890;9.190;2023-12-22T01:10:34;6.20;;;2.03;;
3769;SDS011;1900;48.890;9.190;2023-12-22T01:13:00;3.00;;;1.57;;
3769;SDS011;1900;48.890;9.190;2023-12-22T01:15:26;3.77;;;1.70;;
3769;SDS011;1900;48.890;9.190;2023-12-22T01:17:52;5.03;;;1.87;;
3769;SDS011;1900;48.890;9.190;2023-12-22T01:20:18;6.90;;;2.07;;
3769;SDS011;1900;48.890;9.190;2023-12-22T01:22:44;4.27;;;1.93;;
3769;SDS011;1900;48.890;9.190;2023-12-22T01:25:10;4.40;;;2.13;;
3769;SDS011;1900;48.890;9.190;2023-12-22T01:27:35;3.93;;;1.67;;
3769;SDS011;1900;48.890;9.190;2023-12-22T01:30:01;5.40;;;2.10;;
3769;SDS011;1900;48.890;9.190;2023-12-22T01:32:28;7.90;;;2.17;;
3769;SDS011;1900;48.890;9.190;2023-12-22T01:34:59;6.80;;;2.33;;
3769;SDS011;1900;48.890;9.190;2023-12-22T01:37:29;1.90;;;1.60;;
3769;SDS011;1900;48.890;9.190;2023-12-22T01:39:55;6.97;;;2.07;;
3769;SDS011;1900;48.890;9.190;2023-12-22T01:42:21;8.30;;;2.43;;
3769;SDS011;1900;48.890;9.190;2023-12-22T01:44:46;6.43;;;1.80;;
3769;SDS011;1900;48.890;9.190;2023-12-22T01:47:12;3.10;;;1.90;;
3769;SDS011;1900;48.890;9.190;2023-12-22T01:49:39;4.87;;;2.13;;
3769;SDS011;1900;48.890;9.190;2023-12-22T01:52:05;9.10;;;2.40;;
3769;SDS011;1900;48.890;9.190;2023-12-22T01:54:32;3.33;;;2.10;;
3769;SDS011;1900;48.890;9.190;2023-12-22T01:56:58;7.07;;;3.03;;
3769;SDS011;1900;48.890;9.190;2023-12-22T01:59:23;8.00;;;2.80;;
3769;SDS011;1900;48.890;9.190;2023-12-22T02:01:50;6.60;;;1.87;;
3769;SDS011;1900;48.890;9.190;2023-12-22T02:04:19;2.50;;;1.80;;
3769;SDS011;1900;48.890;9.190;2023-12-22T02:06:46;2.53;;;1.60;;
3769;SDS011;1900;48.890;9.190;2023-12-22T02:09:11;9.30;;;2.87;;
3769;SDS011;1900;48.890;9.190;2023-12-22T02:11:59;5.23;;;2.33;;
3769;SDS011;1900;48.890;9.190;2023-12-22T02:14:24;4.43;;;2.23;;
3769;SDS011;1900;48.890;9.190;2023-12-22T02:17:01;2.60;;;1.60;;
3769;SDS011;1900;48.890;9.190;2023-12-22T02:22:04;4.30;;;3.13;;
3769;SDS011;1900;48.890;9.190;2023-12-22T02:24:30;4.17;;;1.93;;
3769;SDS011;1900;48.890;9.190;2023-12-22T02:27:40;3.83;;;1.40;;
3769;SDS011;1900;48.890;9.190;2023-12-22T02:29:46;2.00;;;1.47;;
3769;SDS011;1900;48.890;9.190;2023-12-22T02:32:23;2.33;;;1.40;;
3769;SDS011;1900;48.890;9.190;2023-12-22T02:34:55;3.13;;;1.50;;
3769;SDS011;1900;48.890;9.190;2023-12-22T02:37:22;3.37;;;1.53;;
3769;SDS011;1900;48.890;9.190;2023-12-22T02:39:51;2.10;;;1.90;;
3769;SDS011;1900;48.890;9.190;2023-12-22T02:42:18;4.83;;;1.70;;
3769;SDS011;1900;48.890;9.190;2023-12-22T02:44:45;4.37;;;1.50;;
3769;SDS011;1900;48.890;9.190;2023-12-22T02:47:11;3.00;;;1.50;;
3769;SDS011;1900;48.890;9.190;2023-12-22T02:49:37;5.53;;;2.00;;
3769;SDS011;1900;48.890;9.190;2023-12-22T02:52:02;3.47;;;1.47;;
3769;SDS011;1900;48.890;9.190;2023-12-22T02:54:28;2.33;;;1.80;;
3769;SDS011;1900;48.890;9.190;2023-12-22T02:56:56;5.00;;;1.63;;
3769;SDS011;1900;48.890;9.190;2023-12-22T02:59:23;4.33;;;1.60;;
3769;SDS011;1900;48.890;9.190;2023-12-22T03:01:51;2.93;;;1.80;;
3769;SDS011;1900;48.890;9.190;2023-12-22T03:04:17;6.90;;;2.13;;
3769;SDS011;1900;48.890;9.190;2023-12-22T03:06:43;4.07;;;1.80;;
3769;SDS011;1900;48.890;9.190;2023-12-22T03:09:09;2.40;;;1.67;;
3769;SDS011;1900;48.890;9.190;2023-12-22T03:11:35;3.07;;;1.70;;
3769;SDS011;1900;48.890;9.190;2023-12-22T03:14:03;4.07;;;1.83;;
3769;SDS011;1900;48.890;9.190;2023-12-22T03:16:29;2.80;;;1.47;;
3769;SDS011;1900;48.890;9.190;2023-12-22T03:18:54;5.83;;;3.60;;
3769;SDS011;1900;48.890;9.190;2023-12-22T03:21:20;2.13;;;1.80;;
3769;SDS011;1900;48.890;9.190;2023-12-22T03:23:46;2.90;;;2.00;;
3769;SDS011;1900;48.890;9.190;2023-12-22T03:26:12;10.77;;;3.73;;
3769;SDS011;1900;48.890;9.190;2023-12-22T03:28:38;10.10;;;2.27;;
3769;SDS011;1900;48.890;9.190;2023-12-22T03:31:04;3.00;;;1.63;;
3769;SDS011;1900;48.890;9.190;2023-12-22T03:33:32;5.40;;;1.93;;
3769;SDS011;1900;48.890;9.190;2023-12-22T03:35:57;4.80;;;1.80;;
3769;SDS011;1900;48.890;9.190;2023-12-22T03:38:23;4.53;;;1.73;;
3769;SDS011;1900;48.890;9.190;2023-12-22T03:40:49;10.80;;;1.93;;
3769;SDS011;1900;48.890;9.190;2023-12-22T03:43:14;3.97;;;1.73;;
3769;SDS011;1900;48.890;9.190;2023-12-22T03:45:40;2.17;;;1.47;;
3769;SDS011;1900;48.890;9.190;2023-12-22T03:48:06;3.57;;;2.00;;
3769;SDS011;1900;48.890;9.190;2023-12-22T03:50:32;5.47;;;1.97;;
3769;SDS011;1900;48.890;9.190;2023-12-22T03:52:57;5.70;;;1.90;;
3769;SDS011;1900;48.890;9.190;2023-12-22T03:55:23;3.00;;;1.93;;
3769;SDS011;1900;48.890;9.190;2023-12-22T03:57:49;8.20;;;1.93;;
3769;SDS011;1900;48.890;9.190;2023-12-22T04:00:14;3.87;;;1.50;;
3769;SDS011;1900;48.890;9.190;2023-12-22T04:02:41;7.83;;;2.50;;
3769;SDS011;1900;48.890;9.190;2023-12-22T04:05:07;4.07;;;1.80;;
3769;SDS011;1900;48.890;9.190;2023-12-22T04:07:34;3.60;;;1.70;;
3769;SDS011;1900;48.890;9.190;2023-12-22T04:10:00;7.90;;;2.07;;
3769;SDS011;1900;48.890;9.190;2023-12-22T04:12:26;4.97;;;1.60;;
3769;SDS011;1900;48.890;9.190;2023-12-22T04:14:52;4.20;;;1.30;;
3769;SDS011;1900;48.890;9.190;2023-12-22T04:17:19;2.90;;;1.57;;
3769;SDS011;1900;48.890;9.190;2023-12-22T04:19:44;3.50;;;1.63;;
3769;SDS011;1900;48.890;9.190;2023-12-22T04:22:10;2.97;;;1.77;;
3769;SDS011;1900;48.890;9.190;2023-12-22T04:24:36;3.83;;;1.70;;
3769;SDS011;1900;48.890;9.190;2023-12-22T04:27:02;7.23;;;2.10;;
3769;SDS011;1900;48.890;9.190;2023-12-22T04:29:28;10.43;;;2.53;;
3769;SDS011;1900;48.890;9.190;2023-12-22T04:31:53;9.30;;;2.60;;
3769;SDS011;1900;48.890;9.190;2023-12-22T04:34:19;7.43;;;2.13;;
3769;SDS011;1900;48.890;9.190;2023-12-22T04:36:45;4.37;;;1.80;;
3769;SDS011;1900;48.890;9.190;2023-12-22T04:39:12;6.10;;;2.07;;
3769;SDS011;1900;48.890;9.190;2023-12-22T04:41:37;9.77;;;2.20;;
3769;SDS011;1900;48.890;9.190;2023-12-22T04:44:04;5.03;;;2.00;;
3769;SDS011;1900;48.890;9.190;2023-12-22T04:46:29;9.23;;;2.60;;
3769;SDS011;1900;48.890;9.190;2023-12-22T04:48:55;8.23;;;2.13;;
3769;SDS011;1900;48.890;9.190;2023-12-22T04:51:21;10.03;;;2.17;;
3769;SDS011;1900;48.890;9.190;2023-12-22T04:53:48;4.23;;;2.07;;
3769;SDS011;1900;48.890;9.190;2023-12-22T04:56:14;7.77;;;2.17;;
3769;SDS011;1900;48.890;9.190;2023-12-22T04:58:39;7.00;;;1.90;;
3769;SDS011;1900;48.890;9.190;2023-12-22T05:01:05;4.90;;;2.30;;
3769;SDS011;1900;48.890;9.190;2023-12-22T05:03:31;5.17;;;2.60;;
3769;SDS011;1900;48.890;9.190;2023-12-22T05:05:56;4.13;;;1.97;;
3769;SDS011;1900;48.890;9.190;2023-12-22T05:08:22;3.43;;;1.70;;
3769;SDS011;1900;48.890;9.190;2023-12-22T05:10:48;11.10;;;3.60;;
3769;SDS011;1900;48.890;9.190;2023-12-22T05:13:14;11.50;;;2.17;;
3769;SDS011;1900;48.890;9.190;2023-12-22T05:15:40;4.40;;;1.80;;
3769;SDS011;1900;48.890;9.190;2023-12-22T05:18:06;4.20;;;2.00;;
3769;SDS011;1900;48.890;9.190;2023-12-22T05:20:32;6.40;;;2.67;;
3769;SDS011;1900;48.890;9.190;2023-12-22T05:22:57;9.83;;;1.90;;
3769;SDS011;1900;48.890;9.190;2023-12-22T05:25:24;6.77;;;2.20;;
3769;SDS011;1900;48.890;9.190;2023-12-22T05:27:49;4.17;;;2.20;;
3769;SDS011;1900;48.890;9.190;2023-12-22T05:30:15;9.27;;;2.40;;
3769;SDS011;1900;48.890;9.190;2023-12-22T05:32:41;10.00;;;2.90;;
3769;SDS011;1900;48.890;9.190;2023-12-22T05:35:07;6.40;;;2.30;;
3769;SDS011;1900;48.890;9.190;2023-12-22T05:37:33;10.03;;;2.70;;
3769;SDS011;1900;48.890;9.190;2023-12-22T05:39:59;8.03;;;2.00;;
3769;SDS011;1900;48.890;9.190;2023-12-22T05:42:24;5.10;;;2.50;;
3769;SDS011;1900;48.890;9.190;2023-12-22T05:44:50;6.70;;;2.03;;
3769;SDS011;1900;48.890;9.190;2023-12-22T05:47:16;10.37;;;3.00;;
3769;SDS011;1900;48.890;9.190;2023-12-22T05:49:43;12.40;;;2.73;;
3769;SDS011;1900;48.890;9.190;2023-12-22T05:52:08;7.90;;;3.17;;
3769;SDS011;1900;48.890;9.190;2023-12-22T05:54:37;8.33;;;2.63;;
3769;SDS011;1900;48.890;9.190;2023-12-22T05:57:06;9.00;;;3.10;;
3769;SDS011;1900;48.890;9.190;2023-12-22T05:59:35;10.87;;;3.33;;
3769;SDS011;1900;48.890;9.190;2023-12-22T06:02:01;16.07;;;3.80;;
3769;SDS011;1900;48.890;9.190;2023-12-22T06:04:28;5.60;;;2.93;;
3769;SDS011;1900;48.890;9.190;2023-12-22T06:06:53;9.93;;;2.93;;
3769;SDS011;1900;48.890;9.190;2023-12-22T06:09:19;9.20;;;3.33;;
3769;SDS011;1900;48.890;9.190;2023-12-22T06:11:48;15.53;;;2.80;;
3769;SDS011;1900;48.890;9.190;2023-12-22T06:14:14;12.00;;;3.20;;
3769;SDS011;1900;48.890;9.190;2023-12-22T06:16:40;14.47;;;3.20;;
3769;SDS011;1900;48.890;9.190;2023-12-22T06:19:05;15.00;;;3.43;;
3769;SDS011;1900;48.890;9.190;2023-12-22T06:21:31;10.43;;;2.67;;
3769;SDS011;1900;48.890;9.190;2023-12-22T06:23:57;7.00;;;3.00;;
3769;SDS011;1900;48.890;9.190;2023-12-22T06:26:23;6.73;;;2.50;;
3769;SDS011;1900;48.890;9.190;2023-12-22T06:28:51;8.83;;;2.70;;
3769;SDS011;1900;48.890;9.190;2023-12-22T06:31:18;11.17;;;3.17;;
3769;SDS011;1900;48.890;9.190;2023-12-22T06:33:46;8.80;;;2.97;;
3769;SDS011;1900;48.890;9.190;2023-12-22T06:36:22;4.40;;;2.40;;
3769;SDS011;1900;48.890;9.190;2023-12-22T06:38:49;13.40;;;3.23;;
3769;SDS011;1900;48.890;9.190;2023-12-22T06:41:20;7.63;;;2.73;;
3769;SDS011;1900;48.890;9.190;2023-12-22T06:43:46;19.17;;;3.03;;
3769;SDS011;1900;48.890;9.190;2023-12-22T06:46:15;14.00;;;2.80;;
3769;SDS011;1900;48.890;9.190;2023-12-22T06:48:42;7.27;;;2.57;;
3769;SDS011;1900;48.890;9.190;2023-12-22T06:51:16;7.23;;;2.30;;
3769;SDS011;1900;48.890;9.190;2023-12-22T06:53:58;6.40;;;2.60;;
3769;SDS011;1900;48.890;9.190;2023-12-22T06:56:27;7.97;;;2.87;;
3769;SDS011;1900;48.890;9.190;2023-12-22T06:58:55;5.33;;;2.50;;
3769;SDS011;1900;48.890;9.190;2023-12-22T07:04:17;9.47;;;2.63;;
3769;SDS011;1900;48.890;9.190;2023-12-22T07:06:42;8.47;;;2.27;;
3769;SDS011;1900;48.890;9.190;2023-12-22T07:11:45;8.30;;;2.90;;
3769;SDS011;1900;48.890;9.190;2023-12-22T07:14:18;15.17;;;2.53;;
3769;SDS011;1900;48.890;9.190;2023-12-22T07:16:44;8.90;;;2.90;;
3769;SDS011;1900;48.890;9.190;2023-12-22T07:19:10;9.87;;;3.13;;
3769;SDS011;1900;48.890;9.190;2023-12-22T07:21:38;9.53;;;3.03;;
3769;SDS011;1900;48.890;9.190;2023-12-22T07:24:05;11.10;;;2.60;;
3769;SDS011;1900;48.890;9.190;2023-12-22T07:26:32;8.30;;;3.17;;
3769;SDS011;1900;48.890;9.190;2023-12-22T07:28:57;4.63;;;2.63;;
3769;SDS011;1900;48.890;9.190;2023-12-22T07:31:23;8.97;;;3.50;;
3769;SDS011;1900;48.890;9.190;2023-12-22T07:33:51;13.60;;;4.20;;
3769;SDS011;1900;48.890;9.190;2023-12-22T07:36:17;14.33;;;3.03;;
3769;SDS011;1900;48.890;9.190;2023-12-22T07:38:46;11.57;;;2.30;;
3769;SDS011;1900;48.890;9.190;2023-12-22T07:41:13;10.67;;;2.97;;
3769;SDS011;1900;48.890;9.190;2023-12-22T07:43:39;9.83;;;3.27;;
3769;SDS011;1900;48.890;9.190;2023-12-22T07:46:05;8.10;;;2.40;;
3769;SDS011;1900;48.890;9.190;2023-12-22T07:48:52;10.23;;;2.70;;
3769;SDS011;1900;48.890;9.190;2023-12-22T07:51:17;6.07;;;2.70;;
3769;SDS011;1900;48.890;9.190;2023-12-22T07:53:43;8.93;;;2.60;;
3769;SDS011;1900;48.890;9.190;2023-12-22T07:56:09;10.63;;;2.47;;
3769;SDS011;1900;48.890;9.190;2023-12-22T07:58:36;8.50;;;3.00;;
3769;SDS011;1900;48.890;9.190;2023-12-22T08:01:02;11.00;;;3.10;;
3769;SDS011;1900;48.890;9.190;2023-12-22T08:03:28;11.63;;;3.63;;
3769;SDS011;1900;48.890;9.190;2023-12-22T08:05:54;16.53;;;2.80;;
3769;SDS011;1900;48.890;9.190;2023-12-22T08:08:20;19.43;;;3.60;;
3769;SDS011;1900;48.890;9.190;2023-12-22T08:10:46;6.27;;;2.77;;
3769;SDS011;1900;48.890;9.190;2023-12-22T08:13:32;7.60;;;2.90;;
3769;SDS011;1900;48.890;9.190;2023-12-22T08:15:57;6.10;;;2.50;;
3769;SDS011;1900;48.890;9.190;2023-12-22T08:18:23;7.03;;;2.90;;
3769;SDS011;1900;48.890;9.190;2023-12-22T08:20:49;7.73;;;2.60;;
3769;SDS011;1900;48.890;9.190;2023-12-22T08:23:16;9.90;;;2.43;;
3769;SDS011;1900;48.890;9.190;2023-12-22T08:25:42;15.90;;;2.63;;
3769;SDS011;1900;48.890;9.190;2023-12-22T08:28:08;17.13;;;2.60;;
3769;SDS011;1900;48.890;9.190;2023-12-22T08:30:33;8.97;;;2.93;;
3769;SDS011;1900;48.890;9.190;2023-12-22T08:32:59;12.83;;;3.87;;
3769;SDS011;1900;48.890;9.190;2023-12-22T08:35:25;15.07;;;2.83;;
3769;SDS011;1900;48.890;9.190;2023-12-22T08:37:51;6.77;;;2.60;;
3769;SDS011;1900;48.890;9.190;2023-12-22T08:40:17;6.07;;;3.10;;
3769;SDS011;1900;48.890;9.190;2023-12-22T08:42:43;7.50;;;2.90;;
3769;SDS011;1900;48.890;9.190;2023-12-22T08:45:09;9.70;;;3.80;;
3769;SDS011;1900;48.890;9.190;2023-12-22T08:47:34;10.53;;;4.50;;
3769;SDS011;1900;48.890;9.190;2023-12-22T08:50:00;10.50;;;3.70;;
3769;SDS011;1900;48.890;9.190;2023-12-22T08:52:29;8.10;;;3.23;;
3769;SDS011;1900;48.890;9.190;2023-12-22T08:54:54;9.73;;;3.30;;
3769;SDS011;1900;48.890;9.190;2023-12-22T08:57:20;17.33;;;3.80;;
3769;SDS011;1900;48.890;9.190;2023-12-22T08:59:46;10.97;;;3.37;;
3769;SDS011;1900;48.890;9.190;2023-12-22T09:02:11;18.47;;;4.37;;
3769;SDS011;1900;48.890;9.190;2023-12-22T09:04:40;16.33;;;4.17;;
3769;SDS011;1900;48.890;9.190;2023-12-22T09:07:06;22.70;;;4.73;;
3769;SDS011;1900;48.890;9.190;2023-12-22T09:09:32;12.40;;;3.80;;
3769;SDS011;1900;48.890;9.190;2023-12-22T09:11:58;8.10;;;3.30;;
3769;SDS011;1900;48.890;9.190;2023-12-22T09:14:24;27.03;;;5.10;;
3769;SDS011;1900;48.890;9.190;2023-12-22T09:16:49;18.97;;;3.57;;
3769;SDS011;1900;48.890;9.190;2023-12-22T09:19:18;16.73;;;3.30;;
3769;SDS011;1900;48.890;9.190;2023-12-22T09:21:44;16.40;;;4.27;;
3769;SDS011;1900;48.890;9.190;2023-12-22T09:24:10;10.00;;;3.50;;
3769;SDS011;1900;48.890;9.190;2023-12-22T09:26:37;19.73;;;3.80;;
3769;SDS011;1900;48.890;9.190;2023-12-22T09:29:03;14.73;;;3.63;;
3769;SDS011;1900;48.890;9.190;2023-12-22T09:31:29;13.80;;;4.40;;
3769;SDS011;1900;48.890;9.190;2023-12-22T09:33:55;17.60;;;3.90;;
3769;SDS011;1900;48.890;9.190;2023-12-22T09:36:21;15.77;;;3.90;;
3769;SDS011;1900;48.890;9.190;2023-12-22T09:38:46;16.93;;;3.97;;
3769;SDS011;1900;48.890;9.190;2023-12-22T09:41:12;13.80;;;4.37;;
3769;SDS011;1900;48.890;9.190;2023-12-22T09:43:40;16.40;;;4.50;;
3769;SDS011;1900;48.890;9.190;2023-12-22T09:46:07;15.73;;;4.47;;
3769;SDS011;1900;48.890;9.190;2023-12-22T09:48:35;14.83;;;4.13;;
3769;SDS011;1900;48.890;9.190;2023-12-22T09:51:04;16.07;;;3.60;;
3769;SDS011;1900;48.890;9.190;2023-12-22T09:53:31;24.17;;;5.10;;
3769;SDS011;1900;48.890;9.190;2023-12-22T09:55:58;9.93;;;4.10;;
3769;SDS011;1900;48.890;9.190;2023-12-22T09:58:25;13.43;;;4.10;;
3769;SDS011;1900;48.890;9.190;2023-12-22T10:00:51;14.67;;;4.10;;
3769;SDS011;1900;48.890;9.190;2023-12-22T10:03:18;16.00;;;3.87;;
3769;SDS011;1900;48.890;9.190;2023-12-22T10:05:45;17.60;;;4.57;;
3769;SDS011;1900;48.890;9.190;2023-12-22T10:08:11;20.27;;;4.80;;
3769;SDS011;1900;48.890;9.190;2023-12-22T10:10:39;15.57;;;4.03;;
3769;SDS011;1900;48.890;9.190;2023-12-22T10:13:05;20.67;;;4.37;;
3769;SDS011;1900;48.890;9.190;2023-12-22T10:15:43;19.70;;;4.80;;
3769;SDS011;1900;48.890;9.190;2023-12-22T10:18:12;8.43;;;3.13;;
3769;SDS011;1900;48.890;9.190;2023-12-22T10:20:38;10.03;;;3.27;;
3769;SDS011;1900;48.890;9.190;2023-12-22T10:23:04;15.90;;;3.73;;
3769;SDS011;1900;48.890;9.190;2023-12-22T10:25:31;14.37;;;4.30;;
3769;SDS011;1900;48.890;9.190;2023-12-22T10:27:57;9.73;;;3.30;;
3769;SDS011;1900;48.890;9.190;2023-12-22T10:30:23;13.23;;;3.87;;
3769;SDS011;1900;48.890;9.190;2023-12-22T10:32:50;15.20;;;4.00;;
3769;SDS011;1900;48.890;9.190;2023-12-22T10:35:17;15.00;;;3.97;;
3769;SDS011;1900;48.890;9.190;2023-12-22T10:37:45;16.77;;;4.10;;
3769;SDS011;1900;48.890;9.190;2023-12-22T10:40:12;17.37;;;4.27;;
3769;SDS011;1900;48.890;9.190;2023-12-22T10:42:39;23.70;;;4.30;;
3769;SDS011;1900;48.890;9.190;2023-12-22T10:45:06;24.50;;;4.00;;
3769;SDS011;1900;48.890;9.190;2023-12-22T10:47:33;12.37;;;3.87;;
3769;SDS011;1900;48.890;9.190;2023-12-22T10:50:02;10.83;;;3.87;;
3769;SDS011;1900;48.890;9.190;2023-12-22T10:52:31;21.37;;;4.87;;
3769;SDS011;1900;48.890;9.190;2023-12-22T10:54:58;14.33;;;4.10;;
3769;SDS011;1900;48.890;9.190;2023-12-22T10:57:24;5.83;;;2.87;;
3769;SDS011;1900;48.890;9.190;2023-12-22T10:59:52;11.67;;;3.43;;
3769;SDS011;1900;48.890;9.190;2023-12-22T11:02:21;15.10;;;3.50;;
3769;SDS011;1900;48.890;9.190;2023-12-22T11:07:23;9.27;;;3.20;;
3769;SDS011;1900;48.890;9.190;2023-12-22T11:09:51;8.30;;;2.50;;
3769;SDS011;1900;48.890;9.190;2023-12-22T11:12:18;4.50;;;2.13;;
3769;SDS011;1900;48.890;9.190;2023-12-22T11:14:45;7.43;;;2.50;;
3769;SDS011;1900;48.890;9.190;2023-12-22T11:17:19;3.70;;;2.70;;
3769;SDS011;1900;48.890;9.190;2023-12-22T11:19:49;9.17;;;3.50;;
3769;SDS011;1900;48.890;9.190;2023-12-22T11:22:19;8.70;;;2.90;;
3769;SDS011;1900;48.890;9.190;2023-12-22T11:24:47;9.70;;;2.40;;
3769;SDS011;1900;48.890;9.190;2023-12-22T11:27:17;10.00;;;3.17;;
3769;SDS011;1900;48.890;9.190;2023-12-22T11:29:47;7.00;;;2.13;;
3769;SDS011;1900;48.890;9.190;2023-12-22T11:32:15;11.70;;;2.67;;
3769;SDS011;1900;48.890;9.190;2023-12-22T11:34:43;4.00;;;2.00;;
3769;SDS011;1900;48.890;9.190;2023-12-22T11:37:14;12.57;;;2.90;;
3769;SDS011;1900;48.890;9.190;2023-12-22T11:39:43;6.30;;;2.13;;
3769;SDS011;1900;48.890;9.190;2023-12-22T11:42:18;7.73;;;2.40;;
3769;SDS011;1900;48.890;9.190;2023-12-22T11:44:49;5.23;;;2.20;;
3769;SDS011;1900;48.890;9.190;2023-12-22T11:47:17;3.43;;;1.87;;
3769;SDS011;1900;48.890;9.190;2023-12-22T11:49:48;8.67;;;2.10;;
3769;SDS011;1900;48.890;9.190;2023-12-22T11:52:16;3.03;;;2.20;;
3769;SDS011;1900;48.890;9.190;2023-12-22T11:54:50;3.40;;;1.70;;
3769;SDS011;1900;48.890;9.190;2023-12-22T11:57:32;1.80;;;1.57;;
3769;SDS011;1900;48.890;9.190;2023-12-22T12:02:55;2.00;;;1.40;;
3769;SDS011;1900;48.890;9.190;2023-12-22T12:05:20;3.90;;;2.00;;
3769;SDS011;1900;48.890;9.190;2023-12-22T12:07:48;4.70;;;1.77;;
3769;SDS011;1900;48.890;9.190;2023-12-22T12:13:04;3.17;;;1.50;;
3769;SDS011;1900;48.890;9.190;2023-12-22T12:15:34;2.70;;;2.17;;
3769;SDS011;1900;48.890;9.190;2023-12-22T12:18:01;4.93;;;1.33;;
3769;SDS011;1900;48.890;9.190;2023-12-22T12:20:27;1.53;;;1.33;;
3769;SDS011;1900;48.890;9.190;2023-12-22T12:22:53;2.23;;;1.60;;
3769;SDS011;1900;48.890;9.190;2023-12-22T12:25:21;2.13;;;1.40;;
3769;SDS011;1900;48.890;9.190;2023-12-22T12:28:01;2.33;;;1.37;;
3769;SDS011;1900;48.890;9.190;2023-12-22T12:30:31;2.13;;;1.23;;
3769;SDS011;1900;48.890;9.190;2023-12-22T12:33:07;3.33;;;1.70;;
3769;SDS011;1900;48.890;9.190;2023-12-22T12:35:39;3.30;;;1.40;;
3769;SDS011;1900;48.890;9.190;2023-12-22T12:38:06;1.73;;;1.30;;
3769;SDS011;1900;48.890;9.190;2023-12-22T12:40:32;2.00;;;1.73;;
3769;SDS011;1900;48.890;9.190;2023-12-22T12:43:00;4.03;;;2.23;;
3769;SDS011;1900;48.890;9.190;2023-12-22T12:45:27;3.10;;;1.57;;
3769;SDS011;1900;48.890;9.190;2023-12-22T12:48:00;2.10;;;1.67;;
3769;SDS011;1900;48.890;9.190;2023-12-22T12:50:27;1.80;;;1.20;;
3769;SDS011;1900;48.890;9.190;2023-12-22T12:52:54;1.43;;;1.33;;
3769;SDS011;1900;48.890;9.190;2023-12-22T12:55:21;1.60;;;1.40;;
3769;SDS011;1900;48.890;9.190;2023-12-22T12:57:49;2.67;;;1.27;;
3769;SDS011;1900;48.890;9.190;2023-12-22T13:00:29;5.83;;;1.60;;
3769;SDS011;1900;48.890;9.190;2023-12-22T13:02:56;2.20;;;1.20;;
3769;SDS011;1900;48.890;9.190;2023-12-22T13:05:30;1.40;;;1.20;;
3769;SDS011;1900;48.890;9.190;2023-12-22T13:08:06;1.23;;;1.13;;
3769;SDS011;1900;48.890;9.190;2023-12-22T13:10:36;1.93;;;1.17;;
3769;SDS011;1900;48.890;9.190;2023-12-22T13:13:03;2.00;;;1.57;;
3769;SDS011;1900;48.890;9.190;2023-12-22T13:15:29;2.23;;;1.10;;
3769;SDS011;1900;48.890;9.190;2023-12-22T13:17:55;3.37;;;1.20;;
3769;SDS011;1900;48.890;9.190;2023-12-22T13:20:21;1.57;;;1.20;;
3769;SDS011;1900;48.890;9.190;2023-12-22T13:22:47;1.53;;;1.20;;
3769;SDS011;1900;48.890;9.190;2023-12-22T13:25:14;2.07;;;1.40;;
3769;SDS011;1900;48.890;9.190;2023-12-22T13:27:51;4.70;;;1.30;;
3769;SDS011;1900;48.890;9.190;2023-12-22T13:32:59;1.37;;;1.10;;
3769;SDS011;1900;48.890;9.190;2023-12-22T13:35:25;1.67;;;1.50;;
3769;SDS011;1900;48.890;9.190;2023-12-22T13:37:53;4.03;;;1.30;;
3769;SDS011;1900;48.890;9.190;2023-12-22T13:40:19;2.00;;;1.10;;
3769;SDS011;1900;48.890;9.190;2023-12-22T13:42:45;1.93;;;1.20;;
3769;SDS011;1900;48.890;9.190;2023-12-22T13:45:18;1.60;;;1.30;;
3769;SDS011;1900;48.890;9.190;2023-12-22T13:47:44;1.40;;;1.20;;
3769;SDS011;1900;48.890;9.190;2023-12-22T13:50:15;1.73;;;1.33;;
3769;SDS011;1900;48.890;9.190;2023-12-22T13:52:41;1.87;;;1.10;;
3769;SDS011;1900;48.890;9.190;2023-12-22T13:55:12;1.20;;;1.10;;
3769;SDS011;1900;48.890;9.190;2023-12-22T13:57:40;1.20;;;1.10;;
3769;SDS011;1900;48.890;9.190;2023-12-22T14:02:49;2.13;;;1.20;;
3769;SDS011;1900;48.890;9.190;2023-12-22T14:05:15;1.23;;;1.13;;
3769;SDS011;1900;48.890;9.190;2023-12-22T14:07:44;1.00;;;1.00;;
3769;SDS011;1900;48.890;9.190;2023-12-22T14:10:11;1.77;;;1.43;;
3769;SDS011;1900;48.890;9.190;2023-12-22T14:12:37;1.97;;;1.30;;
3769;SDS011;1900;48.890;9.190;2023-12-22T14:17:33;1.20;;;1.10;;
3769;SDS011;1900;48.890;9.190;2023-12-22T14:19:58;0.93;;;0.90;;
3769;SDS011;1900;48.890;9.190;2023-12-22T14:22:24;1.47;;;1.00;;
3769;SDS011;1900;48.890;9.190;2023-12-22T14:24:51;1.27;;;1.17;;
3769;SDS011;1900;48.890;9.190;2023-12-22T14:27:17;1.80;;;1.20;;
3769;SDS011;1900;48.890;9.190;2023-12-22T14:29:44;1.20;;;1.10;;
3769;SDS011;1900;48.890;9.190;2023-12-22T14:32:10;1.47;;;1.37;;
3769;SDS011;1900;48.890;9.190;2023-12-22T14:34:40;1.23;;;1.13;;
3769;SDS011;1900;48.890;9.190;2023-12-22T14:37:06;1.20;;;1.10;;
3769;SDS011;1900;48.890;9.190;2023-12-22T14:39:32;4.03;;;1.10;;
3769;SDS011;1900;48.890;9.190;2023-12-22T14:41:59;1.10;;;1.00;;
3769;SDS011;1900;48.890;9.190;2023-12-22T14:44:25;1.67;;;1.10;;
3769;SDS011;1900;48.890;9.190;2023-12-22T14:46:50;2.50;;;1.20;;
3769;SDS011;1900;48.890;9.190;2023-12-22T14:49:16;2.43;;;1.27;;
3769;SDS011;1900;48.890;9.190;2023-12-22T14:51:43;3.00;;;1.47;;
3769;SDS011;1900;48.890;9.190;2023-12-22T14:54:08;1.17;;;1.07;;
3769;SDS011;1900;48.890;9.190;2023-12-22T14:56:37;1.10;;;1.00;;
3769;SDS011;1900;48.890;9.190;2023-12-22T14:59:05;1.20;;;1.10;;
3769;SDS011;1900;48.890;9.190;2023-12-22T15:01:36;1.50;;;1.17;;
3769;SDS011;1900;48.890;9.190;2023-12-22T15:04:04;1.30;;;1.20;;
3769;SDS011;1900;48.890;9.190;2023-12-22T15:06:30;1.27;;;1.17;;
3769;SDS011;1900;48.890;9.190;2023-12-22T15:08:56;2.17;;;1.30;;
3769;SDS011;1900;48.890;9.190;2023-12-22T15:11:24;1.67;;;1.57;;
3769;SDS011;1900;48.890;9.190;2023-12-22T15:13:50;7.70;;;1.27;;
3769;SDS011;1900;48.890;9.190;2023-12-22T15:16:16;1.40;;;1.30;;
3769;SDS011;1900;48.890;9.190;2023-12-22T15:18:41;2.17;;;1.30;;
3769;SDS011;1900;48.890;9.190;2023-12-22T15:21:07;1.67;;;1.20;;
3769;SDS011;1900;48.890;9.190;2023-12-22T15:23:33;1.20;;;1.10;;
3769;SDS011;1900;48.890;9.190;2023-12-22T15:25:59;1.37;;;1.27;;
3769;SDS011;1900;48.890;9.190;2023-12-22T15:28:25;1.53;;;1.20;;
3769;SDS011;1900;48.890;9.190;2023-12-22T15:30:51;1.60;;;1.50;;
3769;SDS011;1900;48.890;9.190;2023-12-22T15:33:17;1.20;;;1.10;;
3769;SDS011;1900;48.890;9.190;2023-12-22T15:35:43;1.20;;;1.10;;
3769;SDS011;1900;48.890;9.190;2023-12-22T15:38:09;1.43;;;1.33;;